Haukur — OZ2119 — position and weather

sailwx.info

Track history (hours):
 
Tides and Currents Weather Stations Pressure Air Temp Water Temp Dewpoint Dewpoint Depression Visibility Wind Speed Wind Dir Waves Ship Positions

Haukur

Last reported at 2016-May-17 12:34 UTC. Time now 2016-May-26 08:53 UTC.
Position N 58°39' E 004°41'.
Warning: this ship's position is 8 days out of date.

Length 75 m; draft 6.2 m.

Type: Cargo ship. MMSI: 231812000.

Date/timePositionNaut miles runAvg speedWind from/ knotsBaromVisibWave heightAir tempDewpointWater temp
2016-May-17 12:34N 58°39' E 004°41'8 8.4
2016-May-17 11:33N 58°34' E 004°54'8 8.0
2016-May-17 10:33N 58°29' E 005°05'8 8.4
2016-May-17 09:34N 58°25' E 005°19'8 8.4
2016-May-17 08:33N 58°20' E 005°33'9 8.5
2016-May-17 07:33N 58°16' E 005°47'8 8.4
2016-May-17 06:33N 58°12' E 006°01'8 7.8
2016-May-17 05:33N 58°08' E 006°14'8 7.6
2016-May-17 04:33N 58°04' E 006°26'8 7.6
2016-May-17 03:33N 58°00' E 006°38'7 7.4
2016-May-17 02:33N 57°56' E 006°50'7 7.4
2016-May-17 01:33N 57°54' E 007°03'8 7.9
2016-May-17 00:33N 57°53' E 007°18'8 7.9
2016-May-16 23:33N 57°53' E 007°33'16 8.0
2016-May-16 21:34N 57°52' E 008°03'8 8.1
2016-May-16 20:33N 57°52' E 008°18'8 7.7
2016-May-16 19:33N 57°52' E 008°32'7 7.4
2016-May-16 18:33N 57°51' E 008°46'7 7.3
2016-May-16 17:33N 57°51' E 009°00'7 7.3
2016-May-16 16:33N 57°51' E 009°14'8 7.8
2016-May-16 15:33N 57°51' E 009°29'8 8.0
2016-May-16 14:33N 57°50' E 009°44'17 8.5
2016-May-16 12:33N 57°50' E 010°16'8 8.3
2016-May-16 11:34N 57°49' E 010°31'8 7.9
2016-May-16 10:33N 57°49' E 010°46'7 6.7
2016-May-16 09:33N 57°45' E 010°56'7 6.8
2016-May-16 08:33N 57°40' E 011°05'7 6.7
2016-May-16 07:33N 57°35' E 011°14'7 7.2
2016-May-16 06:33N 57°30' E 011°23'7 7.5
2016-May-16 05:33N 57°23' E 011°29'8 7.9
2016-May-16 04:33N 57°16' E 011°35'8 8.0
2016-May-16 03:34N 57°08' E 011°40'8 7.9
2016-May-16 02:33N 57°01' E 011°46'8 7.7
2016-May-16 01:33N 56°54' E 011°52'7 7.1
2016-May-16 00:33N 56°48' E 011°58'7 6.8
2016-May-15 23:33N 56°42' E 012°03'7 7.3
2016-May-15 22:33N 56°35' E 012°09'8 7.6
2016-May-15 21:33N 56°28' E 012°14'11 8.3
2016-May-15 20:11N 56°18' E 012°23'5 8.5
2016-May-15 19:33N 56°13' E 012°27'8 7.5
2016-May-15 18:33N 56°07' E 012°34'7 6.6
2016-May-15 17:33N 56°01' E 012°41'7 6.7
2016-May-15 16:33N 55°55' E 012°45'7 7.4
2016-May-15 15:34N 55°48' E 012°43'7 7.4
2016-May-15 14:33N 55°40' E 012°42'7 6.7
2016-May-15 13:33N 55°34' E 012°42'8 7.7
2016-May-15 12:33N 55°26' E 012°42'8 7.6
2016-May-15 11:33N 55°18' E 012°42'8 7.9
2016-May-15 10:33N 55°16' E 012°56'8 8.4
2016-May-15 09:33N 55°15' E 013°10'9 8.5
2016-May-15 08:33N 55°15' E 013°25'9 8.5
2016-May-15 07:33N 55°14' E 013°40'9 8.9
2016-May-15 06:33N 55°14' E 013°56'9 8.7
2016-May-15 05:33N 55°14' E 014°11'8 8.1
2016-May-15 04:34N 55°18' E 014°23'9 8.9
2016-May-15 03:34N 55°25' E 014°33'9 8.6
2016-May-15 02:34N 55°30' E 014°45'8 8.5
2016-May-15 01:34N 55°34' E 014°58'9 8.7
2016-May-15 00:33N 55°38' E 015°11'  
2016-May-10 08:18N 55°12' E 019°23'7 8.9
2016-May-10 07:33N 55°06' E 019°18'9 8.9
2016-May-10 06:33N 54°57' E 019°12'9 8.9
2016-May-10 05:33N 54°49' E 019°05'9 9.0
2016-May-10 04:33N 54°41' E 018°58'9 9.1
2016-May-10 03:33N 54°33' E 018°51'8 8.3
2016-May-10 02:33N 54°32' E 018°36'3 2.9
2016-May-10 01:31N 54°32' E 018°31'0 0.0
2016-May-10 00:31N 54°32' E 018°31'0 0.0
2016-May-09 23:31N 54°32' E 018°31'0 0.0
2016-May-09 22:31N 54°32' E 018°31'0 0.0
2016-May-09 21:31N 54°32' E 018°31'0 0.0
2016-May-09 20:31N 54°32' E 018°31'0 0.0
2016-May-09 19:31N 54°32' E 018°31'0 0.0
2016-May-09 18:31N 54°32' E 018°31'0 0.0
2016-May-09 17:31N 54°32' E 018°31'0 0.0
2016-May-09 16:31N 54°32' E 018°31'0 0.0
2016-May-09 15:31N 54°32' E 018°31'0 0.0
2016-May-09 14:31N 54°32' E 018°31'0 0.0
2016-May-09 13:31N 54°32' E 018°31'0 0.0
2016-May-09 12:31N 54°32' E 018°31'0 0.0
2016-May-09 11:31N 54°32' E 018°31'0 0.0
2016-May-09 10:31N 54°32' E 018°31'0 0.0
2016-May-09 09:31N 54°32' E 018°31'0 0.0
2016-May-09 08:31N 54°32' E 018°31'0 0.0
2016-May-09 07:31N 54°32' E 018°31'0 0.0
2016-May-09 06:31N 54°32' E 018°31'0 0.0
2016-May-09 05:31N 54°32' E 018°31'0 0.0
2016-May-09 04:31N 54°32' E 018°31'0 0.0
2016-May-09 03:34N 54°32' E 018°31'0 0.0
2016-May-09 02:34N 54°32' E 018°31'0 0.0
2016-May-09 01:33N 54°32' E 018°31'0 0.0
2016-May-09 00:33N 54°32' E 018°31'0 0.0
2016-May-08 23:33N 54°32' E 018°31'0 0.0
2016-May-08 22:33N 54°32' E 018°31'0 0.0
2016-May-08 21:33N 54°32' E 018°31'0 0.0
2016-May-08 20:33N 54°32' E 018°31'0 0.0
2016-May-08 19:33N 54°32' E 018°31'0 0.0
2016-May-08 18:33N 54°32' E 018°31'0 0.0
2016-May-08 17:33N 54°32' E 018°31'0 0.0
2016-May-08 16:33N 54°32' E 018°31'3 2.6
2016-May-08 15:32N 54°32' E 018°36'0 0.0
2016-May-08 14:32N 54°32' E 018°36'0 0.0
2016-May-08 13:32N 54°32' E 018°36'0 0.0
2016-May-08 12:32N 54°32' E 018°36'0 0.0
2016-May-08 11:32N 54°32' E 018°36'0 0.0
2016-May-08 10:32N 54°32' E 018°36'0 0.0
2016-May-08 09:32N 54°32' E 018°36'0 0.0
2016-May-08 08:32N 54°32' E 018°36'4 4.3
2016-May-08 07:33N 54°32' E 018°43'8 7.8
2016-May-08 06:33N 54°37' E 018°54'7 6.7
2016-May-08 05:33N 54°43' E 018°49'8 8.4
2016-May-08 04:33N 54°48' E 018°37'8 8.2
2016-May-08 03:33N 54°52' E 018°25'8 8.1
2016-May-08 02:33N 54°54' E 018°11'9 8.5
2016-May-08 01:33N 54°54' E 017°56'8 8.4
2016-May-08 00:33N 54°53' E 017°41'9 8.5
2016-May-07 23:33N 54°53' E 017°26'9 8.7
2016-May-07 22:33N 54°51' E 017°12'9 8.7
2016-May-07 21:33N 54°50' E 016°57'9 9.2
2016-May-07 20:33N 54°48' E 016°41'10 8.8
2016-May-07 19:24N 54°46' E 016°24'10 8.6
2016-May-07 18:14N 54°45' E 016°06'6 8.5
2016-May-07 17:33N 54°44' E 015°57'8 8.2
2016-May-07 16:32N 54°42' E 015°42'8 8.2
2016-May-07 15:33N 54°41' E 015°29'9 8.4
2016-May-07 14:32N 54°40' E 015°14'8 8.3
2016-May-07 13:33N 54°39' E 015°00'  
Track history (hours):
 
Tides and Currents Weather Stations Pressure Air Temp Water Temp Dewpoint Dewpoint Depression Visibility Wind Speed Wind Dir Waves Ship Positions

Haukur

Last reported at 2016-May-17 12:34 UTC. Time now 2016-May-26 08:53 UTC.
Position N 58°39' E 004°41'.
Warning: this ship's position is 8 days out of date.

Length 75 m; draft 6.2 m.

Type: Cargo ship. MMSI: 231812000.

Date/timePositionNaut miles runAvg speedWind from/ knotsBaromVisibWave heightAir tempDewpointWater temp
2016-May-17 12:34N 58°39' E 004°41'8 8.4
2016-May-17 11:33N 58°34' E 004°54'8 8.0
2016-May-17 10:33N 58°29' E 005°05'8 8.4
2016-May-17 09:34N 58°25' E 005°19'8 8.4
2016-May-17 08:33N 58°20' E 005°33'9 8.5
2016-May-17 07:33N 58°16' E 005°47'8 8.4
2016-May-17 06:33N 58°12' E 006°01'8 7.8
2016-May-17 05:33N 58°08' E 006°14'8 7.6
2016-May-17 04:33N 58°04' E 006°26'8 7.6
2016-May-17 03:33N 58°00' E 006°38'7 7.4
2016-May-17 02:33N 57°56' E 006°50'7 7.4
2016-May-17 01:33N 57°54' E 007°03'8 7.9
2016-May-17 00:33N 57°53' E 007°18'8 7.9
2016-May-16 23:33N 57°53' E 007°33'16 8.0
2016-May-16 21:34N 57°52' E 008°03'8 8.1
2016-May-16 20:33N 57°52' E 008°18'8 7.7
2016-May-16 19:33N 57°52' E 008°32'7 7.4
2016-May-16 18:33N 57°51' E 008°46'7 7.3
2016-May-16 17:33N 57°51' E 009°00'7 7.3
2016-May-16 16:33N 57°51' E 009°14'8 7.8
2016-May-16 15:33N 57°51' E 009°29'8 8.0
2016-May-16 14:33N 57°50' E 009°44'17 8.5
2016-May-16 12:33N 57°50' E 010°16'8 8.3
2016-May-16 11:34N 57°49' E 010°31'8 7.9
2016-May-16 10:33N 57°49' E 010°46'7 6.7
2016-May-16 09:33N 57°45' E 010°56'7 6.8
2016-May-16 08:33N 57°40' E 011°05'7 6.7
2016-May-16 07:33N 57°35' E 011°14'7 7.2
2016-May-16 06:33N 57°30' E 011°23'7 7.5
2016-May-16 05:33N 57°23' E 011°29'8 7.9
2016-May-16 04:33N 57°16' E 011°35'8 8.0
2016-May-16 03:34N 57°08' E 011°40'8 7.9
2016-May-16 02:33N 57°01' E 011°46'8 7.7
2016-May-16 01:33N 56°54' E 011°52'7 7.1
2016-May-16 00:33N 56°48' E 011°58'7 6.8
2016-May-15 23:33N 56°42' E 012°03'7 7.3
2016-May-15 22:33N 56°35' E 012°09'8 7.6
2016-May-15 21:33N 56°28' E 012°14'11 8.3
2016-May-15 20:11N 56°18' E 012°23'5 8.5
2016-May-15 19:33N 56°13' E 012°27'8 7.5
2016-May-15 18:33N 56°07' E 012°34'7 6.6
2016-May-15 17:33N 56°01' E 012°41'7 6.7
2016-May-15 16:33N 55°55' E 012°45'7 7.4
2016-May-15 15:34N 55°48' E 012°43'7 7.4
2016-May-15 14:33N 55°40' E 012°42'7 6.7
2016-May-15 13:33N 55°34' E 012°42'8 7.7
2016-May-15 12:33N 55°26' E 012°42'8 7.6
2016-May-15 11:33N 55°18' E 012°42'8 7.9
2016-May-15 10:33N 55°16' E 012°56'8 8.4
2016-May-15 09:33N 55°15' E 013°10'9 8.5
2016-May-15 08:33N 55°15' E 013°25'9 8.5
2016-May-15 07:33N 55°14' E 013°40'9 8.9
2016-May-15 06:33N 55°14' E 013°56'9 8.7
2016-May-15 05:33N 55°14' E 014°11'8 8.1
2016-May-15 04:34N 55°18' E 014°23'9 8.9
2016-May-15 03:34N 55°25' E 014°33'9 8.6
2016-May-15 02:34N 55°30' E 014°45'8 8.5
2016-May-15 01:34N 55°34' E 014°58'9 8.7
2016-May-15 00:33N 55°38' E 015°11'  
2016-May-10 08:18N 55°12' E 019°23'7 8.9
2016-May-10 07:33N 55°06' E 019°18'9 8.9
2016-May-10 06:33N 54°57' E 019°12'9 8.9
2016-May-10 05:33N 54°49' E 019°05'9 9.0
2016-May-10 04:33N 54°41' E 018°58'9 9.1
2016-May-10 03:33N 54°33' E 018°51'8 8.3
2016-May-10 02:33N 54°32' E 018°36'3 2.9
2016-May-10 01:31N 54°32' E 018°31'0 0.0
2016-May-10 00:31N 54°32' E 018°31'0 0.0
2016-May-09 23:31N 54°32' E 018°31'0 0.0
2016-May-09 22:31N 54°32' E 018°31'0 0.0
2016-May-09 21:31N 54°32' E 018°31'0 0.0
2016-May-09 20:31N 54°32' E 018°31'0 0.0
2016-May-09 19:31N 54°32' E 018°31'0 0.0
2016-May-09 18:31N 54°32' E 018°31'0 0.0
2016-May-09 17:31N 54°32' E 018°31'0 0.0
2016-May-09 16:31N 54°32' E 018°31'0 0.0
2016-May-09 15:31N 54°32' E 018°31'0 0.0
2016-May-09 14:31N 54°32' E 018°31'0 0.0
2016-May-09 13:31N 54°32' E 018°31'0 0.0
2016-May-09 12:31N 54°32' E 018°31'0 0.0
2016-May-09 11:31N 54°32' E 018°31'0 0.0
2016-May-09 10:31N 54°32' E 018°31'0 0.0
2016-May-09 09:31N 54°32' E 018°31'0 0.0
2016-May-09 08:31N 54°32' E 018°31'0 0.0
2016-May-09 07:31N 54°32' E 018°31'0 0.0
2016-May-09 06:31N 54°32' E 018°31'0 0.0
2016-May-09 05:31N 54°32' E 018°31'0 0.0
2016-May-09 04:31N 54°32' E 018°31'0 0.0
2016-May-09 03:34N 54°32' E 018°31'0 0.0
2016-May-09 02:34N 54°32' E 018°31'0 0.0
2016-May-09 01:33N 54°32' E 018°31'0 0.0
2016-May-09 00:33N 54°32' E 018°31'0 0.0
2016-May-08 23:33N 54°32' E 018°31'0 0.0
2016-May-08 22:33N 54°32' E 018°31'0 0.0
2016-May-08 21:33N 54°32' E 018°31'0 0.0
2016-May-08 20:33N 54°32' E 018°31'0 0.0
2016-May-08 19:33N 54°32' E 018°31'0 0.0
2016-May-08 18:33N 54°32' E 018°31'0 0.0
2016-May-08 17:33N 54°32' E 018°31'0 0.0
2016-May-08 16:33N 54°32' E 018°31'3 2.6
2016-May-08 15:32N 54°32' E 018°36'0 0.0
2016-May-08 14:32N 54°32' E 018°36'0 0.0
2016-May-08 13:32N 54°32' E 018°36'0 0.0
2016-May-08 12:32N 54°32' E 018°36'0 0.0
2016-May-08 11:32N 54°32' E 018°36'0 0.0
2016-May-08 10:32N 54°32' E 018°36'0 0.0
2016-May-08 09:32N 54°32' E 018°36'0 0.0
2016-May-08 08:32N 54°32' E 018°36'4 4.3
2016-May-08 07:33N 54°32' E 018°43'8 7.8
2016-May-08 06:33N 54°37' E 018°54'7 6.7
2016-May-08 05:33N 54°43' E 018°49'8 8.4
2016-May-08 04:33N 54°48' E 018°37'8 8.2
2016-May-08 03:33N 54°52' E 018°25'8 8.1
2016-May-08 02:33N 54°54' E 018°11'9 8.5
2016-May-08 01:33N 54°54' E 017°56'8 8.4
2016-May-08 00:33N 54°53' E 017°41'9 8.5
2016-May-07 23:33N 54°53' E 017°26'9 8.7
2016-May-07 22:33N 54°51' E 017°12'9 8.7
2016-May-07 21:33N 54°50' E 016°57'9 9.2
2016-May-07 20:33N 54°48' E 016°41'10 8.8
2016-May-07 19:24N 54°46' E 016°24'10 8.6
2016-May-07 18:14N 54°45' E 016°06'6 8.5
2016-May-07 17:33N 54°44' E 015°57'8 8.2
2016-May-07 16:32N 54°42' E 015°42'8 8.2
2016-May-07 15:33N 54°41' E 015°29'9 8.4
2016-May-07 14:32N 54°40' E 015°14'8 8.3
2016-May-07 13:33N 54°39' E 015°00'  

Dump ship's entire track history